Time;durP1;ratioP1;P1;durP2;ratioP2;P2;SDS_P1;SDS_P2;PMS_P1;PMS_P2;Temp;Humidity;BMP_temperature;BMP_pressure;BME280_temperature;BME280_humidity;BME280_pressure;Samples;Min_cycle;Max_cycle;Signal;HPM_P1;HPM_P2
2021/06/04 00:00:48;;;;;;;16.97;9.95;;;;;;;12.43;60.15;101089.18;2188248;80;31267;-66
2021/06/04 00:03:52;;;;;;;13.87;10.20;;;;;;;12.34;60.12;101088.23;2189798;80;27765;-68
2021/06/04 00:06:54;;;;;;;17.87;11.18;;;;;;;12.34;60.12;101088.23;2207263;80;30154;-66
2021/06/04 00:09:56;;;;;;;15.88;10.78;;;;;;;12.30;60.42;101089.33;2217933;80;27713;-68
2021/06/04 00:13:47;;;;;;;13.53;9.73;;;;;;;12.25;60.50;101088.16;2217854;80;28615;-68
2021/06/04 00:16:58;;;;;;;16.52;10.98;;;;;;;12.21;60.46;101091.06;2150002;82;31744;-68
2021/06/04 00:19:59;;;;;;;15.95;10.55;;;;;;;12.13;60.48;101092.28;2182919;80;32989;-68
2021/06/04 00:23:01;;;;;;;16.90;10.00;;;;;;;12.06;60.59;101096.16;2209450;80;29046;-67
2021/06/04 00:26:05;;;;;;;16.37;12.18;;;;;;;12.03;60.62;101091.40;2175448;80;28130;-68
2021/06/04 00:29:07;;;;;;;15.68;10.48;;;;;;;11.98;60.83;101087.09;2213862;80;28654;-68
2021/06/04 00:32:12;;;;;;;14.93;10.20;;;;;;;11.97;60.94;101087.99;2216930;80;31018;-67
2021/06/04 00:35:14;;;;;;;16.15;9.70;;;;;;;11.95;61.10;101079.61;2214997;80;33910;-67
2021/06/04 00:38:16;;;;;;;15.75;10.95;;;;;;;11.94;61.08;101080.55;2217366;80;29016;-65
2021/06/04 00:41:26;;;;;;;16.25;10.63;;;;;;;11.94;61.41;101079.20;2183466;80;27707;-66
2021/06/04 00:44:29;;;;;;;16.65;10.93;;;;;;;11.93;61.41;101082.34;2194580;80;28499;-65
2021/06/04 00:47:30;;;;;;;16.25;10.60;;;;;;;11.92;61.36;101078.39;2216376;80;31388;-65
2021/06/04 00:50:40;;;;;;;17.95;11.40;;;;;;;11.88;61.48;101077.66;2211264;80;32979;-65
2021/06/04 00:53:43;;;;;;;13.08;9.70;;;;;;;11.83;61.48;101070.27;2195766;80;30043;-64
2021/06/04 00:56:47;;;;;;;15.75;10.45;;;;;;;11.81;61.45;101080.19;2182354;80;27646;-68
2021/06/04 00:59:49;;;;;;;14.15;10.58;;;;;;;11.79;61.56;101075.35;2181305;81;29522;-70
2021/06/04 01:02:52;;;;;;;14.13;10.13;;;;;;;11.78;61.83;101073.15;2193072;80;31018;-68
2021/06/04 01:06:09;;;;;;;14.23;10.85;;;;;;;11.77;61.79;101071.85;2190014;80;32981;-70
2021/06/04 01:09:33;;;;;;;18.65;9.93;;;;;;;11.75;61.94;101072.41;2208634;80;29271;-72
2021/06/04 01:13:00;;;;;;;14.43;10.35;;;;;;;11.73;62.09;101067.09;2199048;80;27729;-65
2021/06/04 01:16:20;;;;;;;16.42;10.40;;;;;;;11.71;62.18;101068.97;2196202;80;28362;-65
2021/06/04 01:19:47;;;;;;;15.32;9.25;;;;;;;11.67;62.11;101065.55;2120491;78;31123;-66
2021/06/04 01:23:31;;;;;;;16.07;8.95;;;;;;;11.66;62.22;101071.84;2073866;85;33640;-65
2021/06/04 01:26:52;;;;;;;14.35;9.30;;;;;;;11.68;62.30;101071.32;2047090;85;29718;-65
2021/06/04 01:30:23;;;;;;;17.37;9.90;;;;;;;11.69;62.21;101068.16;2060041;85;27630;-68
2021/06/04 01:33:38;;;;;;;17.73;10.82;;;;;;;11.70;62.43;101066.77;2058335;85;28120;-67
2021/06/04 01:36:57;;;;;;;12.05;9.08;;;;;;;11.70;62.42;101077.50;2065442;85;31295;-66
2021/06/04 01:40:04;;;;;;;13.45;10.43;;;;;;;11.70;62.34;101075.27;2032687;86;33275;-65
2021/06/04 01:43:17;;;;;;;18.90;10.53;;;;;;;11.67;62.26;101078.97;2069987;85;29027;-73
2021/06/04 01:46:30;;;;;;;13.08;9.88;;;;;;;11.64;62.25;101079.09;2023568;87;27656;-65
2021/06/04 01:49:36;;;;;;;16.17;9.60;;;;;;;11.61;62.24;101082.38;2052537;85;28723;-66
2021/06/04 01:52:39;;;;;;;15.20;9.73;;;;;;;11.53;62.15;101078.67;2073568;85;31200;-66
2021/06/04 01:55:46;;;;;;;16.75;10.85;;;;;;;11.48;62.27;101084.68;2046815;84;33003;-64
2021/06/04 01:59:02;;;;;;;15.58;10.88;;;;;;;11.42;62.16;101084.47;2048851;85;29041;-64
2021/06/04 02:02:05;;;;;;;22.22;10.28;;;;;;;11.34;62.29;101084.78;2058694;85;27655;-64
2021/06/04 02:05:10;;;;;;;15.85;10.38;;;;;;;11.28;62.26;101086.35;2053818;85;28685;-65
2021/06/04 02:08:15;;;;;;;;;;;;;;;11.23;62.28;101091.05;2078920;84;31217;-65
2021/06/04 02:11:22;;;;;;;14.77;10.80;;;;;;;11.16;62.30;101090.42;2071638;84;32947;-66
2021/06/04 02:14:32;;;;;;;16.42;10.60;;;;;;;11.07;62.36;101086.30;2070740;85;29967;-66
2021/06/04 02:17:54;;;;;;;13.13;9.65;;;;;;;11.01;62.39;101082.95;2065752;85;27644;-66
2021/06/04 02:21:19;;;;;;;16.87;10.35;;;;;;;10.93;62.45;101078.77;2051180;85;28670;-66
2021/06/04 02:24:35;;;;;;;15.03;9.97;;;;;;;10.87;62.54;101079.48;2047875;86;31904;-64
2021/06/04 02:27:41;;;;;;;11.73;8.65;;;;;;;10.83;62.71;101078.73;2042349;87;33561;-66
2021/06/04 02:31:16;;;;;;;13.38;10.03;;;;;;;10.79;62.87;101078.44;2041365;87;29170;-66
2021/06/04 02:34:42;;;;;;;16.37;10.00;;;;;;;10.78;62.96;101073.52;2042035;87;27621;-66
2021/06/04 02:37:58;;;;;;;17.92;10.78;;;;;;;10.79;63.06;101074.41;2042488;87;32918;-66
2021/06/04 02:41:08;;;;;;;20.17;11.35;;;;;;;10.78;63.24;101073.52;2013979;88;31081;-65
2021/06/04 02:44:18;;;;;;;15.13;10.78;;;;;;;10.78;63.20;101072.66;2028854;86;33009;-66
2021/06/04 02:47:25;;;;;;;17.67;11.63;;;;;;;10.78;63.25;101071.33;1990636;88;29186;-65
2021/06/04 02:50:38;;;;;;;23.57;12.10;;;;;;;10.76;63.30;101074.52;1980223;89;27728;-68
2021/06/04 02:53:54;;;;;;;19.07;12.20;;;;;;;10.74;63.48;101073.70;2053418;85;28659;-66
2021/06/04 02:56:58;;;;;;;;;;;;;;;10.72;63.90;101071.55;2052547;85;31184;-66
2021/06/04 03:00:00;;;;;;;20.00;12.05;;;;;;;10.70;64.10;101067.59;2041423;87;33044;-66
2021/06/04 03:03:01;;;;;;;17.40;12.10;;;;;;;10.69;63.81;101065.84;2041716;87;29056;-69
2021/06/04 03:06:04;;;;;;;18.35;12.05;;;;;;;10.72;63.98;101064.84;2041635;85;27782;-64
2021/06/04 03:09:12;;;;;;;17.30;11.40;;;;;;;10.72;63.92;101069.75;2041251;87;29296;-64
2021/06/04 03:12:22;;;;;;;15.08;10.93;;;;;;;10.76;64.02;101064.66;2042143;87;31038;-73
2021/06/04 03:15:41;;;;;;;15.85;10.68;;;;;;;10.82;64.08;101067.60;2041796;87;33845;-64
2021/06/04 03:18:48;;;;;;;18.57;11.70;;;;;;;10.87;64.15;101066.94;2050965;86;29100;-64
2021/06/04 03:21:58;;;;;;;15.98;11.08;;;;;;;10.97;64.26;101064.77;2012270;88;27718;-64
2021/06/04 03:25:05;;;;;;;17.32;11.10;;;;;;;11.04;64.19;101064.95;2012605;88;28858;-65
2021/06/04 03:28:11;;;;;;;16.00;11.50;;;;;;;11.13;64.23;101072.22;1996829;88;31100;-64
2021/06/04 03:31:15;;;;;;;13.30;10.30;;;;;;;11.20;64.17;101072.39;2011829;88;33084;-66
2021/06/04 03:34:18;;;;;;;17.10;11.50;;;;;;;11.27;64.32;101075.70;2012607;88;29796;-64
2021/06/04 03:37:21;;;;;;;17.80;10.85;;;;;;;11.34;64.19;101077.18;1979535;89;27743;-64
2021/06/04 03:40:27;;;;;;;18.40;11.65;;;;;;;11.41;64.20;101074.67;1977076;90;28699;-65
2021/06/04 03:43:30;;;;;;;20.60;12.00;;;;;;;11.50;64.14;101077.45;2010122;88;31017;-63
2021/06/04 03:46:32;;;;;;;19.45;11.65;;;;;;;11.57;64.17;101075.38;2029693;87;33748;-63
2021/06/04 03:49:35;;;;;;;18.82;10.40;;;;;;;11.63;64.08;101078.68;2028021;87;30019;-63
2021/06/04 03:52:37;;;;;;;11.38;8.53;;;;;;;11.72;64.02;101076.08;2019268;87;27633;-65
2021/06/04 03:55:43;;;;;;;16.95;10.40;;;;;;;11.81;63.90;101080.19;2024675;87;28725;-65
2021/06/04 03:58:46;;;;;;;14.30;9.08;;;;;;;11.90;63.68;101081.61;2015370;87;31090;-62
2021/06/04 04:01:59;;;;;;;16.50;9.53;;;;;;;12.04;63.63;101085.95;2023707;87;33033;-65
2021/06/04 04:05:00;;;;;;;20.20;10.65;;;;;;;12.17;63.46;101083.61;2005849;87;29071;-65
2021/06/04 04:08:04;;;;;;;13.08;8.65;;;;;;;12.34;63.32;101083.34;2013572;87;27602;-66
2021/06/04 04:11:07;;;;;;;14.55;9.65;;;;;;;12.49;63.25;101079.11;2040958;87;28775;-70
2021/06/04 04:14:09;;;;;;;11.25;8.90;;;;;;;12.64;63.05;101077.06;2031034;87;31032;-73
2021/06/04 04:17:11;;;;;;;12.28;9.38;;;;;;;12.80;62.82;101073.66;2015789;87;33619;-65
2021/06/04 04:20:16;;;;;;;16.25;8.88;;;;;;;12.94;62.63;101075.68;2041604;85;29021;-63
2021/06/04 04:23:24;;;;;;;13.25;9.23;;;;;;;13.09;62.49;101073.61;2042546;86;27746;-65
2021/06/04 04:26:31;;;;;;;11.12;8.85;;;;;;;13.24;62.24;101074.70;2041847;87;29327;-66
2021/06/04 04:29:34;;;;;;;13.60;8.70;;;;;;;13.39;62.02;101070.41;2041916;87;31015;-65
2021/06/04 04:32:37;;;;;;;14.50;8.63;;;;;;;13.54;61.89;101068.79;2042130;87;33633;-66
2021/06/04 04:35:40;;;;;;;12.73;9.30;;;;;;;13.70;61.69;101072.05;2042635;86;29809;-66
2021/06/04 04:38:42;;;;;;;13.18;9.18;;;;;;;13.88;61.52;101071.61;2042641;87;28208;-65
2021/06/04 04:41:56;;;;;;;13.80;8.45;;;;;;;14.13;61.62;101065.34;2042715;87;28820;-65
2021/06/04 04:45:01;;;;;;;16.62;8.65;;;;;;;15.20;61.92;101064.13;2042350;87;31063;-65
2021/06/04 04:48:06;;;;;;;11.15;8.70;;;;;;;16.85;60.82;101058.77;2043621;86;32968;-65
2021/06/04 04:51:08;;;;;;;15.13;9.10;;;;;;;18.49;59.78;101056.45;2042577;87;29091;-65
2021/06/04 04:54:10;;;;;;;8.95;7.70;;;;;;;20.10;57.83;101061.94;2042551;87;27837;-64
2021/06/04 04:57:13;;;;;;;10.20;7.97;;;;;;;21.56;56.02;101051.11;2042395;86;28629;-66
2021/06/04 05:00:21;;;;;;;10.50;7.60;;;;;;;22.95;53.77;101052.39;2042605;87;31033;-64
2021/06/04 05:03:23;;;;;;;10.72;7.35;;;;;;;24.24;52.10;101063.34;2042529;87;33859;-65
2021/06/04 05:06:25;;;;;;;11.12;7.12;;;;;;;25.48;50.11;101064.50;2041834;86;29031;-65
2021/06/04 05:09:27;;;;;;;10.15;7.17;;;;;;;26.57;48.60;101060.77;2042248;87;28232;-64
2021/06/04 05:12:28;;;;;;;10.98;7.40;;;;;;;27.53;46.63;101062.91;2042428;87;28803;-67
2021/06/04 05:15:35;;;;;;;9.95;7.37;;;;;;;28.37;45.38;101070.17;2042214;87;31029;-62
2021/06/04 05:18:38;;;;;;;9.43;7.45;;;;;;;29.18;43.69;101064.06;2041159;87;33023;-67
2021/06/04 05:21:41;;;;;;;9.00;7.25;;;;;;;30.01;41.80;101062.17;2029033;87;29205;-68
2021/06/04 05:24:44;;;;;;;8.10;6.62;;;;;;;30.74;40.14;101056.97;2039084;87;28272;-69
2021/06/04 05:27:46;;;;;;;14.30;7.08;;;;;;;31.39;39.27;101053.52;1990521;88;28725;-70
2021/06/04 05:30:51;;;;;;;15.53;8.48;;;;;;;31.96;37.08;101050.94;2047677;87;31038;-69
2021/06/04 05:33:54;;;;;;;11.70;6.85;;;;;;;32.29;35.94;101055.92;2012903;88;32966;-69
2021/06/04 05:36:57;;;;;;;10.45;6.50;;;;;;;32.74;35.07;101059.73;2019280;87;29115;-66
2021/06/04 05:39:59;;;;;;;7.53;6.20;;;;;;;33.10;33.39;101050.84;2007821;88;27720;-66
2021/06/04 05:43:02;;;;;;;13.58;6.03;;;;;;;33.30;32.29;101049.00;2007294;88;28804;-65
2021/06/04 05:46:06;;;;;;;10.80;6.35;;;;;;;33.48;31.51;101046.19;2016004;87;31144;-67
2021/06/04 05:49:08;;;;;;;9.08;6.70;;;;;;;33.52;30.90;101048.00;2041187;87;32403;-69
2021/06/04 05:52:14;;;;;;;7.90;6.00;;;;;;;33.61;30.19;101053.67;2041154;87;28993;-67
2021/06/04 05:55:19;;;;;;;7.78;6.42;;;;;;;33.79;30.34;101055.86;2005937;87;27740;-66
2021/06/04 05:58:21;;;;;;;11.43;6.65;;;;;;;34.06;29.34;101054.49;2076347;85;28660;-67
2021/06/04 06:01:29;;;;;;;13.93;7.33;;;;;;;34.17;28.85;101047.44;2038289;85;31031;-66
2021/06/04 06:04:30;;;;;;;8.93;6.60;;;;;;;34.35;28.61;101051.80;2087551;85;33036;-65
2021/06/04 06:07:32;;;;;;;10.60;6.17;;;;;;;34.61;28.20;101052.84;2089146;84;29219;-65
2021/06/04 06:10:34;;;;;;;17.10;6.60;;;;;;;34.75;28.04;101058.39;2099527;84;27701;-64
2021/06/04 06:13:37;;;;;;;7.30;5.97;;;;;;;34.88;27.09;101054.69;2079063;84;28620;-64
2021/06/04 06:16:40;;;;;;;8.07;5.50;;;;;;;34.95;27.32;101055.01;2075649;84;31027;-63
2021/06/04 06:19:41;;;;;;;9.23;5.85;;;;;;;35.09;26.59;101053.55;2087614;85;33884;-63
2021/06/04 06:22:43;;;;;;;6.55;5.47;;;;;;;35.31;26.69;101059.68;2080553;83;28990;-65
2021/06/04 06:25:50;;;;;;;10.08;5.28;;;;;;;35.55;26.31;101065.55;2061698;85;27630;-69
2021/06/04 06:28:53;;;;;;;8.18;5.50;;;;;;;35.79;25.99;101061.66;2063780;85;29508;-65
2021/06/04 06:31:55;;;;;;;12.88;5.53;;;;;;;36.08;25.52;101066.27;2073144;85;34783;-66
2021/06/04 06:34:57;;;;;;;7.90;5.10;;;;;;;36.18;24.67;101060.49;2062300;85;34067;-66
2021/06/04 06:37:59;;;;;;;10.40;5.00;;;;;;;36.00;24.89;101061.83;2064903;86;29013;-69
2021/06/04 06:41:04;;;;;;;7.40;5.00;;;;;;;36.23;24.04;101069.56;2045872;85;27626;-72
2021/06/04 06:44:05;;;;;;;7.87;5.03;;;;;;;36.15;24.33;101063.73;2043357;85;28835;-69
2021/06/04 06:47:07;;;;;;;6.92;4.87;;;;;;;36.08;24.10;101067.66;2066974;85;31926;-69
2021/06/04 06:50:12;;;;;;;9.75;4.75;;;;;;;36.29;23.99;101065.87;2071792;85;33026;-67
2021/06/04 06:53:16;;;;;;;10.48;5.30;;;;;;;36.46;23.88;101070.89;2073092;85;29032;-67
2021/06/04 06:56:20;;;;;;;15.78;5.55;;;;;;;36.65;23.11;101070.35;2072993;84;27706;-67
2021/06/04 06:59:25;;;;;;;20.32;6.70;;;;;;;36.71;23.77;101068.56;2072509;84;28700;-67
2021/06/04 07:02:27;;;;;;;13.35;5.55;;;;;;;36.89;23.33;101071.36;2072589;85;31870;-67
2021/06/04 07:05:30;;;;;;;25.72;10.05;;;;;;;37.32;23.28;101073.74;2071861;85;33846;-67
2021/06/04 07:08:32;;;;;;;12.43;6.67;;;;;;;37.72;23.07;101066.73;2072675;85;33903;-68
2021/06/04 07:11:37;;;;;;;9.75;4.92;;;;;;;37.85;21.43;101074.06;2073048;85;27671;-68
2021/06/04 07:14:39;;;;;;;13.22;4.87;;;;;;;37.35;21.00;101070.48;2072805;85;28651;-64
2021/06/04 07:17:42;;;;;;;12.63;4.67;;;;;;;36.83;21.15;101069.48;2072823;85;31198;-68
2021/06/04 07:20:43;;;;;;;9.58;5.42;;;;;;;36.71;21.38;101069.44;2070822;84;33755;-68
2021/06/04 07:23:45;;;;;;;9.28;4.90;;;;;;;36.69;22.32;101061.83;2062200;85;29291;-67
2021/06/04 07:26:51;;;;;;;9.23;4.05;;;;;;;36.52;21.57;101057.39;2062363;85;27791;-88
2021/06/04 07:29:53;;;;;;;11.63;5.10;;;;;;;36.20;21.50;101060.25;2062463;86;29470;-65
2021/06/04 07:32:56;;;;;;;14.40;6.72;;;;;;;35.88;20.63;101056.97;2062419;86;31869;-67
2021/06/04 07:36:00;;;;;;;7.28;3.95;;;;;;;35.68;22.16;101053.47;2062527;86;33785;-67
2021/06/04 07:39:09;;;;;;;16.23;5.92;;;;;;;35.62;21.74;101060.80;2062460;86;29043;-66
2021/06/04 07:42:14;;;;;;;7.10;4.17;;;;;;;35.71;22.14;101054.42;2062494;86;27707;-68
2021/06/04 07:45:16;;;;;;;11.03;6.47;;;;;;;35.89;22.13;101059.20;2062478;86;28087;-66
2021/06/04 07:48:20;;;;;;;12.85;5.20;;;;;;;36.07;21.98;101056.19;2062113;86;32137;-67
2021/06/04 07:51:30;;;;;;;8.58;4.42;;;;;;;35.89;20.94;101054.50;2062387;85;32955;-67
2021/06/04 07:54:33;;;;;;;8.45;4.47;;;;;;;35.50;21.17;101061.19;2060780;85;29037;-67
2021/06/04 07:57:35;;;;;;;6.65;3.87;;;;;;;35.27;21.99;101060.64;2062937;85;27653;-67
2021/06/04 08:00:39;;;;;;;11.10;5.08;;;;;;;35.04;20.77;101058.40;2062407;85;29480;-67
2021/06/04 08:03:41;;;;;;;12.35;4.80;;;;;;;34.65;21.70;101059.69;2062684;83;31110;-66
2021/06/04 08:06:43;;;;;;;5.63;3.20;;;;;;;34.63;21.73;101068.78;2062655;85;33006;-68
2021/06/04 08:09:45;;;;;;;8.38;3.37;;;;;;;34.73;21.71;101058.59;2062568;85;29830;-62
2021/06/04 08:12:47;;;;;;;8.03;3.85;;;;;;;34.64;20.70;101058.52;2062544;85;27638;-63
2021/06/04 08:15:57;;;;;;;5.97;3.25;;;;;;;34.38;20.51;101057.45;2062576;85;29503;-63
2021/06/04 08:18:59;;;;;;;7.95;3.40;;;;;;;34.15;21.17;101051.84;2062468;85;31040;-63
2021/06/04 08:22:04;;;;;;;6.78;3.52;;;;;;;34.12;20.86;101056.42;2067153;85;33741;-64
2021/06/04 08:25:07;;;;;;;13.83;3.37;;;;;;;34.35;21.39;101046.76;2072618;85;29266;-63
2021/06/04 08:28:09;;;;;;;12.07;4.73;;;;;;;34.76;21.22;101058.16;2072997;85;27698;-65
2021/06/04 08:31:13;;;;;;;5.08;2.90;;;;;;;35.18;21.64;101050.84;2072633;85;28641;-67
2021/06/04 08:34:15;;;;;;;12.03;3.92;;;;;;;35.48;20.56;101055.84;2072523;85;31084;-65
2021/06/04 08:37:17;;;;;;;11.35;4.22;;;;;;;35.40;21.26;101054.70;2072650;85;32978;-65
2021/06/04 08:40:24;;;;;;;10.25;4.28;;;;;;;35.49;21.03;101057.55;2072779;85;30170;-67
2021/06/04 08:43:54;;;;;;;6.28;3.12;;;;;;;35.28;20.89;101055.39;2073078;85;28209;-67
2021/06/04 08:47:04;;;;;;;6.72;3.42;;;;;;;34.93;19.55;101054.89;2025489;87;29469;-66
2021/06/04 08:50:27;;;;;;;5.45;3.40;;;;;;;34.20;20.05;101049.79;2025220;87;31088;-64
2021/06/04 08:53:40;;;;;;;5.53;4.30;;;;;;;34.13;20.86;101047.53;2025888;87;32971;-65
2021/06/04 08:56:50;;;;;;;5.37;3.50;;;;;;;34.00;20.21;101058.99;1933243;92;29207;-65
2021/06/04 08:59:54;;;;;;;6.60;3.85;;;;;;;33.62;20.29;101049.83;1932263;92;27838;-64
2021/06/04 09:03:06;;;;;;;5.42;3.83;;;;;;;33.33;20.37;101044.94;1932620;92;28657;-70
2021/06/04 09:06:23;;;;;;;4.10;3.33;;;;;;;33.08;20.32;101037.70;1932745;92;31090;-64
2021/06/04 09:09:42;;;;;;;6.97;3.42;;;;;;;32.98;20.70;101041.73;1932850;92;33581;-69
2021/06/04 09:13:01;;;;;;;7.67;3.65;;;;;;;33.02;21.37;101031.91;1932260;92;29839;-71
2021/06/04 09:16:27;;;;;;;8.45;3.15;;;;;;;32.91;21.52;101033.05;1931152;92;27744;-69
2021/06/04 09:20:02;;;;;;;3.58;3.27;;;;;;;32.90;20.97;101034.11;1925352;92;28693;-65
2021/06/04 09:23:09;;;;;;;11.57;3.40;;;;;;;32.92;21.51;101031.45;1918168;89;31113;-70
2021/06/04 09:26:16;;;;;;;12.10;3.35;;;;;;;32.68;21.03;101031.41;1989938;89;32328;-74
2021/06/04 09:29:25;;;;;;;7.25;2.87;;;;;;;32.59;21.25;101034.88;1990047;89;29084;-69
2021/06/04 09:32:27;;;;;;;6.25;2.90;;;;;;;32.35;20.66;101032.06;1998159;85;27807;-77
2021/06/04 09:35:29;;;;;;;7.58;3.22;;;;;;;31.91;20.83;101022.95;2072999;85;28641;-70
2021/06/04 09:38:36;;;;;;;10.00;4.40;;;;;;;31.74;21.03;101024.62;2073196;85;31847;-72
2021/06/04 09:41:46;;;;;;;5.17;3.08;;;;;;;31.60;21.09;101024.13;2072767;85;33793;-68
2021/06/04 09:45:00;;;;;;;6.45;3.22;;;;;;;31.32;21.48;101022.16;2073048;85;29921;-67
2021/06/04 09:48:07;;;;;;;7.33;3.40;;;;;;;31.10;21.81;101021.23;2073131;85;27783;-68
2021/06/04 09:51:14;;;;;;;3.77;3.20;;;;;;;30.90;21.30;101021.30;2072166;85;28706;-74
2021/06/04 09:54:28;;;;;;;6.40;3.35;;;;;;;30.60;21.91;101021.34;2072775;85;31833;-74
2021/06/04 09:57:28;;;;;;;5.53;3.10;;;;;;;30.26;21.87;101015.81;2072837;85;33862;-71
2021/06/04 10:00:44;;;;;;;5.53;3.05;;;;;;;30.05;22.52;101017.93;2073054;85;29031;-67
2021/06/04 10:03:55;;;;;;;5.78;3.27;;;;;;;29.87;22.27;101019.59;2073132;84;27625;-68
2021/06/04 10:07:16;;;;;;;5.85;3.20;;;;;;;29.61;23.13;101020.86;2071554;85;28748;-64
2021/06/04 10:10:28;;;;;;;6.28;3.45;;;;;;;29.63;23.79;101013.25;2070925;85;31340;-65
2021/06/04 10:14:06;;;;;;;5.20;3.25;;;;;;;29.68;23.81;101016.33;2072957;84;32974;-69
2021/06/04 10:17:39;;;;;;;7.12;3.62;;;;;;;29.55;23.44;101014.69;2072960;85;29084;-64
2021/06/04 10:20:46;;;;;;;;;;;;;;;29.21;24.16;101020.05;2075444;85;28287;-63
2021/06/04 10:23:51;;;;;;;7.67;3.45;;;;;;;29.03;24.81;101010.69;2075855;84;28093;-65
2021/06/04 10:26:58;;;;;;;6.20;3.92;;;;;;;28.92;23.93;101010.06;2076672;85;31227;-69
2021/06/04 10:30:14;;;;;;;26.90;7.35;;;;;;;28.81;24.43;101015.95;2076859;85;32956;-69
2021/06/04 10:33:46;;;;;;;31.33;8.68;;;;;;;28.80;25.13;101008.22;2076690;85;29883;-69
2021/06/04 10:36:52;;;;;;;11.12;5.05;;;;;;;28.77;25.28;101013.23;2076906;85;27464;-69
2021/06/04 10:40:00;;;;;;;5.78;3.62;;;;;;;28.79;24.98;101010.63;2076142;85;29514;-63
2021/06/04 10:43:34;;;;;;;3.72;3.33;;;;;;;28.83;25.33;101012.50;2076306;85;31022;-66
2021/06/04 10:47:13;;;;;;;15.43;5.85;;;;;;;29.00;24.71;101005.52;2076786;85;34803;-66
2021/06/04 10:50:43;;;;;;;9.58;4.67;;;;;;;29.02;25.68;101002.95;2076711;85;30025;-65
2021/06/04 10:54:09;;;;;;;6.25;3.22;;;;;;;29.10;25.47;101002.04;2076899;85;27710;-68
2021/06/04 10:57:44;;;;;;;15.43;5.17;;;;;;;29.26;25.27;101003.31;2076684;85;28714;-66
2021/06/04 11:01:05;;;;;;;9.38;4.85;;;;;;;29.40;25.41;101000.30;2071999;85;31052;-68
2021/06/04 11:04:21;;;;;;;9.08;3.85;;;;;;;29.49;25.41;100996.12;2076476;84;33737;-63
2021/06/04 11:07:41;;;;;;;15.15;6.95;;;;;;;29.33;24.40;100988.77;2076272;85;29057;-67
2021/06/04 11:11:07;;;;;;;10.70;5.10;;;;;;;29.13;25.22;100985.63;2075303;85;27686;-64
2021/06/04 11:14:38;;;;;;;16.23;6.17;;;;;;;29.16;25.77;100985.27;2076094;85;28707;-69
2021/06/04 11:18:11;;;;;;;8.40;4.33;;;;;;;29.19;26.07;100984.38;2076387;84;31701;-70
2021/06/04 11:21:52;;;;;;;13.75;4.62;;;;;;;29.19;25.76;100985.76;2073088;85;33040;-68
2021/06/04 11:25:42;;;;;;;11.10;4.83;;;;;;;29.18;26.03;100981.27;2076112;84;43484;-67
2021/06/04 11:29:07;;;;;;;6.25;3.30;;;;;;;29.30;26.49;100981.72;2076449;84;32802;-71
2021/06/04 11:32:23;;;;;;;11.97;4.53;;;;;;;29.38;26.21;100980.84;2076523;84;28805;-65
2021/06/04 11:35:30;;;;;;;12.58;5.03;;;;;;;29.45;26.35;100972.67;2076300;85;31025;-66
2021/06/04 11:38:55;;;;;;;8.63;4.22;;;;;;;29.47;26.36;100972.81;2075682;85;33740;-73
2021/06/04 11:42:01;;;;;;;4.70;2.92;;;;;;;29.54;26.02;100975.19;2075811;85;29031;-70
2021/06/04 11:45:06;;;;;;;6.92;3.60;;;;;;;29.69;25.93;100971.11;2076287;85;27750;-69
2021/06/04 11:48:32;;;;;;;5.35;3.25;;;;;;;29.75;25.61;100965.35;2072690;85;28700;-70
2021/06/04 11:51:39;;;;;;;5.00;2.85;;;;;;;29.74;25.79;100964.14;2076524;85;31024;-73
2021/06/04 11:54:41;;;;;;;5.62;3.22;;;;;;;29.70;25.30;100963.13;2077776;85;32263;-70
2021/06/04 11:58:16;;;;;;;5.20;3.60;;;;;;;29.52;24.96;100957.94;2078136;85;29021;-73
2021/06/04 12:01:41;;;;;;;5.20;3.20;;;;;;;29.25;24.79;100958.82;2068498;83;27195;-76
2021/06/04 12:05:14;;;;;;;4.15;2.83;;;;;;;29.11;25.22;100963.22;2088463;84;28853;-75
2021/06/04 12:08:44;;;;;;;4.47;3.25;;;;;;;28.99;25.10;100956.41;2099398;84;31100;-74
2021/06/04 12:11:50;;;;;;;4.03;3.27;;;;;;;28.83;25.13;100953.20;2100015;84;33108;-76
2021/06/04 12:15:12;;;;;;;3.72;2.85;;;;;;;28.69;25.37;100949.80;2073762;85;29298;-72
2021/06/04 12:18:50;;;;;;;6.75;3.42;;;;;;;28.59;25.39;100936.23;2042387;87;27689;-74
2021/06/04 12:21:56;;;;;;;6.37;3.10;;;;;;;28.47;25.51;100946.29;2076533;85;28813;-71
2021/06/04 12:24:58;;;;;;;5.85;3.10;;;;;;;28.33;25.90;100942.91;2038884;87;31033;-66
2021/06/04 12:28:06;;;;;;;7.15;3.42;;;;;;;28.32;26.43;100939.81;2099640;84;33011;-70
2021/06/04 12:31:12;;;;;;;8.80;3.80;;;;;;;28.27;25.92;100933.95;2099529;84;29012;-67
2021/06/04 12:34:41;;;;;;;8.15;3.65;;;;;;;28.23;26.47;100933.46;2095989;84;27633;-69
2021/06/04 12:37:43;;;;;;;3.20;2.90;;;;;;;28.26;26.72;100934.48;2099316;84;29429;-67
2021/06/04 12:40:52;;;;;;;3.70;3.35;;;;;;;28.29;26.44;100931.89;2099628;84;32052;-63
2021/06/04 12:43:54;;;;;;;4.25;2.98;;;;;;;28.33;26.79;100926.38;2099554;84;33160;-64
2021/06/04 12:46:57;;;;;;;8.75;3.67;;;;;;;28.46;26.84;100921.67;2099565;84;29024;-65
2021/06/04 12:50:10;;;;;;;10.23;3.40;;;;;;;28.60;26.93;100924.17;2073929;84;27711;-64
2021/06/04 12:53:40;;;;;;;9.65;3.92;;;;;;;28.68;26.83;100921.39;2099624;84;29473;-71
2021/06/04 12:56:59;;;;;;;4.80;3.05;;;;;;;28.88;26.28;100912.16;2098124;84;30962;-63
2021/06/04 13:00:24;;;;;;;3.98;2.65;;;;;;;29.05;26.35;100909.30;2099119;84;33955;-64
2021/06/04 13:03:29;;;;;;;3.10;2.55;;;;;;;29.19;25.98;100908.49;2099442;84;29061;-65
2021/06/04 13:06:47;;;;;;;3.70;2.98;;;;;;;29.26;25.74;100909.48;2099264;84;27739;-64
2021/06/04 13:10:27;;;;;;;3.30;2.58;;;;;;;29.29;25.81;100908.25;2098438;84;29912;-65
2021/06/04 13:13:35;;;;;;;8.40;2.87;;;;;;;29.35;25.47;100908.05;2099584;84;31067;-65
2021/06/04 13:16:38;;;;;;;3.30;2.80;;;;;;;29.43;26.36;100902.98;2099525;84;33030;-65
2021/06/04 13:19:40;;;;;;;3.02;2.33;;;;;;;29.60;26.45;100901.79;2099536;84;29958;-66
2021/06/04 13:22:46;;;;;;;5.10;3.42;;;;;;;29.73;25.62;100890.61;2099461;84;27672;-65
2021/06/04 13:26:11;;;;;;;5.67;3.00;;;;;;;29.80;24.91;100891.59;2099525;84;28742;-65
2021/06/04 13:29:36;;;;;;;5.25;2.98;;;;;;;29.81;25.56;100895.53;2099711;84;31989;-64
2021/06/04 13:32:49;;;;;;;4.28;2.77;;;;;;;29.81;25.10;100891.38;2098958;84;33785;-65
2021/06/04 13:35:51;;;;;;;4.50;3.27;;;;;;;29.65;24.77;100888.29;2099620;84;29020;-65
2021/06/04 13:39:04;;;;;;;3.08;2.70;;;;;;;29.41;24.64;100884.70;2099696;84;27677;-66
2021/06/04 13:42:14;;;;;;;2.67;2.47;;;;;;;29.36;25.69;100883.55;2096717;84;28717;-65
2021/06/04 13:45:18;;;;;;;8.18;2.90;;;;;;;29.43;25.21;100878.14;2081103;84;33192;-66
2021/06/04 13:48:28;;;;;;;;;;;;;;;29.44;24.98;100881.23;2074730;85;33001;-65
2021/06/04 13:51:36;;;;;;;2.55;2.35;;;;;;;29.35;24.77;100874.43;2073086;84;29030;-64
2021/06/04 13:54:50;;;;;;;3.12;2.80;;;;;;;29.31;25.00;100868.03;2071339;85;27799;-65
2021/06/04 13:57:52;;;;;;;3.70;2.90;;;;;;;29.31;25.46;100871.66;2072738;84;28674;-65
2021/06/04 14:01:23;;;;;;;4.58;2.80;;;;;;;29.26;25.33;100868.59;2071964;85;31100;-65
2021/06/04 14:04:45;;;;;;;2.95;2.45;;;;;;;29.23;25.14;100872.59;2072752;85;32954;-64
2021/06/04 14:07:48;;;;;;;5.87;2.47;;;;;;;29.17;25.54;100862.82;2072927;85;29029;-65
2021/06/04 14:11:02;;;;;;;5.70;2.50;;;;;;;29.10;25.30;100859.41;2072877;85;27702;-67
2021/06/04 14:14:10;;;;;;;4.22;2.72;;;;;;;29.09;25.79;100860.99;2072149;85;29463;-65
2021/06/04 14:17:37;;;;;;;5.03;2.65;;;;;;;29.10;25.99;100853.89;2043490;85;31072;-65
2021/06/04 14:20:45;;;;;;;4.17;2.83;;;;;;;28.99;25.51;100846.06;2073037;85;32963;-65
2021/06/04 14:24:11;;;;;;;3.95;2.62;;;;;;;28.87;25.08;100847.01;2071876;85;29711;-69
2021/06/04 14:27:33;;;;;;;5.00;2.60;;;;;;;28.85;25.15;100851.84;2072145;85;27549;-67
2021/06/04 14:30:45;;;;;;;5.50;3.40;;;;;;;28.94;26.12;100846.63;2072010;85;28642;-68
2021/06/04 14:33:52;;;;;;;4.47;2.30;;;;;;;29.03;25.40;100851.56;2070889;85;30646;-68
2021/06/04 14:36:54;;;;;;;4.17;2.65;;;;;;;28.99;25.36;100852.96;2048228;85;33042;-65